METAR Data
IDs: Format: Raw Decoded Include TAF

Data at: 0930 UTC 28 Sep 2021

KJOT 280915Z AUTO 04003KT 10SM CLR 17/15 A2994 RMK AO2 T01690146